Time;durP1;ratioP1;P1;durP2;ratioP2;P2;SDS_P1;SDS_P2;PMS_P1;PMS_P2;Temp;Humidity;BMP_temperature;BMP_pressure;BME280_temperature;BME280_humidity;BME280_pressure;Samples;Min_cycle;Max_cycle;Signal;HPM_P1;HPM_P2
2024/01/21 00:02:11;;;;;;;0.97;0.97;;;-9.20;99.90;;;;;;5035106;28;20202;-76
2024/01/21 00:04:37;;;;;;;0.90;0.90;;;-9.20;99.90;;;;;;5034740;28;20267;-76
2024/01/21 00:07:02;;;;;;;0.90;0.90;;;-9.10;99.90;;;;;;5017569;28;20600;-76
2024/01/21 00:09:28;;;;;;;1.00;1.00;;;-9.10;99.90;;;;;;5017824;28;20186;-76
2024/01/21 00:11:54;;;;;;;1.00;1.00;;;-9.00;99.90;;;;;;5036635;28;20238;-76
2024/01/21 00:14:20;;;;;;;0.93;0.93;;;-9.00;99.90;;;;;;5016837;28;20198;-76
2024/01/21 00:17:07;;;;;;;0.90;0.90;;;-8.90;99.90;;;;;;5034524;28;20205;-76
2024/01/21 00:19:32;;;;;;;0.90;0.90;;;-8.90;99.90;;;;;;5033605;28;20585;-76
2024/01/21 00:22:03;;;;;;;0.90;0.90;;;-8.80;99.90;;;;;;5034751;28;20210;-76
2024/01/21 00:24:29;;;;;;;0.90;0.90;;;-8.70;99.90;;;;;;5034359;28;20603;-77
2024/01/21 00:26:55;;;;;;;1.03;1.03;;;-8.70;99.90;;;;;;5034239;28;20198;-76
2024/01/21 00:29:20;;;;;;;0.90;0.90;;;-8.60;99.90;;;;;;5034075;28;20222;-76
2024/01/21 00:31:46;;;;;;;1.00;1.00;;;-8.50;99.90;;;;;;5034504;28;20200;-76
2024/01/21 00:34:12;;;;;;;1.10;1.10;;;-8.40;99.90;;;;;;5034443;28;20229;-76
2024/01/21 00:36:38;;;;;;;0.80;0.80;;;-8.40;99.90;;;;;;5034380;28;20194;-77
2024/01/21 00:39:03;;;;;;;0.90;0.90;;;-8.40;99.90;;;;;;5034304;28;20221;-76
2024/01/21 00:41:29;;;;;;;0.87;0.87;;;-8.30;99.90;;;;;;5033958;28;20602;-76
2024/01/21 00:43:54;;;;;;;0.90;0.90;;;-8.30;99.90;;;;;;5016504;28;20216;-76
2024/01/21 00:46:20;;;;;;;0.90;0.90;;;-8.20;99.90;;;;;;5034259;28;20204;-76
2024/01/21 00:48:46;;;;;;;0.90;0.90;;;-8.20;99.90;;;;;;5034481;28;20187;-76
2024/01/21 00:51:12;;;;;;;1.07;1.07;;;-8.20;99.90;;;;;;5033647;28;20556;-76
2024/01/21 00:53:37;;;;;;;0.90;0.90;;;-8.10;99.90;;;;;;5034558;28;21870;-76
2024/01/21 00:56:03;;;;;;;1.00;1.00;;;-8.10;99.90;;;;;;5016563;28;20202;-78
2024/01/21 00:58:29;;;;;;;0.90;0.90;;;-8.00;99.90;;;;;;5015968;28;20198;-78
2024/01/21 01:00:54;;;;;;;0.90;0.90;;;-8.00;99.90;;;;;;5033873;28;20654;-78
2024/01/21 01:03:24;;;;;;;1.10;1.10;;;-8.00;99.90;;;;;;5015780;28;20198;-78
2024/01/21 01:05:50;;;;;;;1.77;1.67;;;-7.90;99.90;;;;;;5033889;28;20240;-79
2024/01/21 01:08:17;;;;;;;1.00;1.00;;;-7.90;99.90;;;;;;5033768;28;20197;-78
2024/01/21 01:10:43;;;;;;;0.90;0.90;;;-7.80;99.90;;;;;;5033609;28;20222;-78
2024/01/21 01:13:09;;;;;;;0.80;0.80;;;-7.80;99.90;;;;;;5033165;28;20190;-78
2024/01/21 01:15:34;;;;;;;0.90;0.90;;;-7.70;99.90;;;;;;5033308;28;20647;-79
2024/01/21 01:18:00;;;;;;;0.90;0.90;;;-7.70;99.90;;;;;;5033516;28;20189;-78
2024/01/21 01:20:26;;;;;;;0.90;0.90;;;-7.60;99.90;;;;;;5033187;28;20209;-78
2024/01/21 01:22:51;;;;;;;0.90;0.90;;;-7.60;99.90;;;;;;5031936;28;20218;-78
2024/01/21 01:25:17;;;;;;;0.90;0.90;;;-7.50;99.90;;;;;;5033281;28;20273;-78
2024/01/21 01:27:43;;;;;;;1.07;1.03;;;-7.50;99.90;;;;;;5033613;28;20241;-79
2024/01/21 01:30:09;;;;;;;0.90;0.90;;;-7.50;99.90;;;;;;5033138;28;20297;-78
2024/01/21 01:32:35;;;;;;;0.97;0.97;;;-7.50;99.90;;;;;;5031860;28;20234;-78
2024/01/21 01:35:00;;;;;;;1.00;1.00;;;-7.60;99.90;;;;;;5033389;28;20233;-76
2024/01/21 01:37:26;;;;;;;1.00;1.00;;;-7.60;99.90;;;;;;5031836;28;20252;-77
2024/01/21 01:39:52;;;;;;;1.10;1.10;;;-7.60;99.90;;;;;;5033637;28;20233;-78
2024/01/21 01:42:17;;;;;;;0.90;0.90;;;-7.70;99.90;;;;;;5032973;28;20301;-78
2024/01/21 01:44:43;;;;;;;0.90;0.90;;;-7.70;99.90;;;;;;5032781;28;20200;-78
2024/01/21 01:47:09;;;;;;;3.80;1.80;;;-7.70;99.90;;;;;;5031700;28;20202;-78
2024/01/21 01:49:37;;;;;;;0.70;0.70;;;-7.60;99.90;;;;;;5032961;28;20198;-78
2024/01/21 01:52:04;;;;;;;0.90;0.90;;;-7.60;99.90;;;;;;5032960;28;20332;-78
2024/01/21 01:54:32;;;;;;;0.93;0.93;;;-7.50;99.90;;;;;;5032684;28;20289;-78
2024/01/21 01:56:58;;;;;;;0.90;0.90;;;-7.40;99.90;;;;;;5032896;28;20670;-78
2024/01/21 01:59:26;;;;;;;0.90;0.90;;;-7.30;99.90;;;;;;5031204;28;20202;-78
2024/01/21 02:01:52;;;;;;;0.97;0.97;;;-7.30;99.90;;;;;;5032751;28;20576;-79
2024/01/21 02:04:18;;;;;;;1.10;1.10;;;-7.20;99.90;;;;;;5032829;28;20211;-78
2024/01/21 02:06:43;;;;;;;0.83;0.83;;;-7.20;99.90;;;;;;5048427;28;20228;-79
2024/01/21 02:09:09;;;;;;;0.90;0.90;;;-7.10;99.90;;;;;;5057211;28;20218;-80
2024/01/21 02:11:35;;;;;;;1.00;1.00;;;-7.00;99.90;;;;;;5056679;28;20230;-78
2024/01/21 02:14:00;;;;;;;1.00;1.00;;;-7.00;99.90;;;;;;5056746;28;20202;-78
2024/01/21 02:16:26;;;;;;;0.83;0.83;;;-7.00;99.90;;;;;;5056810;28;20193;-74
2024/01/21 02:18:53;;;;;;;0.80;0.80;;;-6.90;99.90;;;;;;5054860;28;20190;-75
2024/01/21 02:21:19;;;;;;;0.90;0.90;;;-6.90;99.90;;;;;;5035879;28;20210;-76
2024/01/21 02:23:44;;;;;;;0.83;0.83;;;-6.80;99.90;;;;;;5035837;28;20194;-76
2024/01/21 02:26:10;;;;;;;1.60;1.50;;;-6.80;99.90;;;;;;5039420;28;20256;-73
2024/01/21 02:28:36;;;;;;;1.00;1.00;;;-6.70;99.90;;;;;;5016030;28;20194;-73
2024/01/21 02:31:01;;;;;;;0.90;0.90;;;-6.70;99.90;;;;;;5034487;28;20213;-74
2024/01/21 02:33:27;;;;;;;1.00;1.00;;;-6.70;99.90;;;;;;5032913;28;20198;-74
2024/01/21 02:35:53;;;;;;;2.43;2.23;;;-6.70;99.90;;;;;;5032761;28;20204;-74
2024/01/21 02:38:19;;;;;;;0.90;0.90;;;-6.80;99.90;;;;;;5032623;28;20191;-75
2024/01/21 02:40:44;;;;;;;0.90;0.90;;;-6.80;99.90;;;;;;5032669;28;20209;-77
2024/01/21 02:43:10;;;;;;;0.80;0.80;;;-6.80;99.90;;;;;;5032300;28;20194;-76
2024/01/21 02:45:36;;;;;;;0.90;0.90;;;-6.90;99.90;;;;;;5014358;28;20190;-76
2024/01/21 02:48:02;;;;;;;1.17;1.17;;;-7.00;99.90;;;;;;5032093;28;20657;-76
2024/01/21 02:50:27;;;;;;;0.90;0.90;;;-7.00;99.90;;;;;;5031744;28;20202;-76
2024/01/21 02:52:53;;;;;;;0.90;0.90;;;-7.00;99.90;;;;;;5032174;28;20697;-77
2024/01/21 02:55:19;;;;;;;0.90;0.90;;;-7.00;99.90;;;;;;5031647;28;20202;-75
2024/01/21 02:57:44;;;;;;;0.80;0.80;;;-6.90;99.90;;;;;;5031939;28;20225;-76
2024/01/21 03:00:13;;;;;;;1.03;1.03;;;-6.90;99.90;;;;;;5031702;28;20194;-77
2024/01/21 03:02:39;;;;;;;0.90;0.90;;;-6.80;99.90;;;;;;5030272;28;20295;-76
2024/01/21 03:05:05;;;;;;;0.90;0.90;;;-6.70;99.90;;;;;;5031368;28;20225;-76
2024/01/21 03:07:30;;;;;;;0.90;0.90;;;-6.60;99.90;;;;;;5031776;28;20702;-76
2024/01/21 03:09:56;;;;;;;0.90;0.90;;;-6.50;99.90;;;;;;5016916;28;20249;-74
2024/01/21 03:12:22;;;;;;;0.97;0.97;;;-6.40;99.90;;;;;;5013375;28;20268;-75
2024/01/21 03:14:47;;;;;;;0.90;0.90;;;-6.30;99.90;;;;;;5031277;28;20195;-75
2024/01/21 03:17:13;;;;;;;0.90;0.90;;;-6.30;99.90;;;;;;5032842;28;20196;-76
2024/01/21 03:19:39;;;;;;;1.63;1.20;;;-6.20;99.90;;;;;;5031525;28;20202;-76
2024/01/21 03:22:04;;;;;;;0.80;0.80;;;-6.10;99.90;;;;;;5032009;28;20222;-76
2024/01/21 03:24:31;;;;;;;1.00;1.00;;;-6.00;99.90;;;;;;5031174;28;20202;-75
2024/01/21 03:26:56;;;;;;;0.73;0.73;;;-5.90;99.90;;;;;;5031162;28;20212;-76
2024/01/21 03:29:23;;;;;;;0.90;0.90;;;-5.80;99.90;;;;;;5035985;28;20238;-76
2024/01/21 03:31:49;;;;;;;0.90;0.90;;;-5.80;99.90;;;;;;5015496;28;20255;-76
2024/01/21 03:34:14;;;;;;;0.85;0.85;;;-5.60;99.90;;;;;;5033046;28;20236;-76
2024/01/21 03:36:40;;;;;;;1.15;1.15;;;-5.50;99.90;;;;;;5032565;28;20200;-76
2024/01/21 03:39:06;;;;;;;0.80;0.80;;;-5.30;99.90;;;;;;5032769;28;20200;-77
2024/01/21 03:41:31;;;;;;;0.80;0.80;;;-5.10;99.90;;;;;;5031251;28;20304;-77
2024/01/21 03:43:57;;;;;;;0.90;0.90;;;-4.90;99.90;;;;;;5031592;28;20277;-76
2024/01/21 03:46:24;;;;;;;0.90;0.90;;;-4.60;99.90;;;;;;5014007;28;20289;-76
2024/01/21 03:48:49;;;;;;;0.90;0.90;;;-4.30;99.90;;;;;;5031690;28;20201;-76
2024/01/21 03:51:15;;;;;;;0.80;0.80;;;-4.20;99.90;;;;;;5031597;28;20197;-78
2024/01/21 03:53:41;;;;;;;0.70;0.70;;;-3.90;99.90;;;;;;5031202;28;20210;-76
2024/01/21 03:56:07;;;;;;;0.80;0.80;;;-3.50;99.90;;;;;;5031400;28;20204;-76
2024/01/21 03:58:33;;;;;;;0.80;0.80;;;-3.30;99.90;;;;;;5031219;28;20234;-76
2024/01/21 04:00:59;;;;;;;0.90;0.90;;;-3.00;99.90;;;;;;5036623;28;20217;-76
2024/01/21 04:03:25;;;;;;;0.80;0.80;;;-2.80;99.90;;;;;;5023102;28;20266;-76
2024/01/21 04:05:50;;;;;;;0.80;0.80;;;-2.50;99.90;;;;;;4993752;28;20306;-78
2024/01/21 04:08:17;;;;;;;0.90;0.90;;;-2.40;99.90;;;;;;5011282;28;20215;-77
2024/01/21 04:10:42;;;;;;;0.90;0.90;;;-2.20;99.90;;;;;;5011486;28;20663;-77
2024/01/21 04:13:09;;;;;;;0.80;0.80;;;-2.10;99.90;;;;;;5028985;28;20288;-77
2024/01/21 04:15:34;;;;;;;0.80;0.80;;;-2.00;99.90;;;;;;5030999;28;20190;-77
2024/01/21 04:18:00;;;;;;;0.80;0.80;;;-1.80;99.90;;;;;;5031004;28;20620;-76
2024/01/21 04:20:26;;;;;;;0.70;0.70;;;-1.70;99.90;;;;;;5013589;28;20190;-76
2024/01/21 04:22:52;;;;;;;0.80;0.80;;;-1.60;99.90;;;;;;5031272;28;20217;-76
2024/01/21 04:25:18;;;;;;;0.80;0.80;;;-1.20;99.90;;;;;;5033649;28;20293;-79
2024/01/21 04:27:44;;;;;;;0.80;0.80;;;-1.00;99.90;;;;;;5017066;28;20194;-78
2024/01/21 04:30:09;;;;;;;0.60;0.60;;;-0.80;99.90;;;;;;5034641;28;20285;-79
2024/01/21 04:32:35;;;;;;;0.60;0.60;;;-0.70;99.90;;;;;;5034009;28;20201;-79
2024/01/21 04:35:14;;;;;;;0.73;0.73;;;-0.80;99.90;;;;;;5036346;28;20691;-79
2024/01/21 04:37:40;;;;;;;0.77;0.77;;;-0.70;99.90;;;;;;5037627;28;20190;-78
2024/01/21 04:40:06;;;;;;;0.60;0.60;;;-0.50;99.90;;;;;;5034598;28;20194;-78
2024/01/21 04:42:31;;;;;;;0.75;0.75;;;-0.40;99.90;;;;;;5016114;28;20293;-78
2024/01/21 04:44:57;;;;;;;0.80;0.80;;;-0.20;99.90;;;;;;5034764;28;20607;-78
2024/01/21 04:47:23;;;;;;;0.80;0.80;;;0.00;99.90;;;;;;5033952;28;20186;-78
2024/01/21 04:49:48;;;;;;;0.70;0.70;;;0.00;99.90;;;;;;5016494;28;20297;-78
2024/01/21 04:52:14;;;;;;;0.73;0.73;;;0.10;99.90;;;;;;5034065;28;20203;-78
2024/01/21 04:54:40;;;;;;;0.70;0.70;;;0.10;99.90;;;;;;5033892;28;20252;-77
2024/01/21 04:57:05;;;;;;;0.60;0.60;;;0.20;99.90;;;;;;5033940;28;20201;-78
2024/01/21 04:59:31;;;;;;;0.55;0.55;;;0.20;99.90;;;;;;5033825;28;20205;-78
2024/01/21 05:01:57;;;;;;;0.80;0.80;;;0.30;99.90;;;;;;5032299;28;20222;-78
2024/01/21 05:04:22;;;;;;;0.80;0.80;;;0.30;99.90;;;;;;5032206;28;20209;-78
2024/01/21 05:06:48;;;;;;;0.80;0.80;;;0.40;99.90;;;;;;5033831;28;20205;-78
2024/01/21 05:09:14;;;;;;;0.77;0.77;;;0.40;99.90;;;;;;5032305;28;20650;-78
2024/01/21 05:11:39;;;;;;;0.60;0.60;;;0.40;99.90;;;;;;5010512;28;20249;-78
2024/01/21 05:14:05;;;;;;;0.80;0.80;;;0.40;99.90;;;;;;5013515;28;20659;-79
2024/01/21 05:16:31;;;;;;;0.73;0.73;;;0.60;99.90;;;;;;4995969;28;20243;-78
2024/01/21 05:18:56;;;;;;;0.70;0.70;;;0.70;99.90;;;;;;4996251;28;20219;-78
2024/01/21 05:21:22;;;;;;;0.70;0.70;;;0.70;99.90;;;;;;5014092;28;20210;-78
2024/01/21 05:23:50;;;;;;;0.63;0.63;;;0.80;99.90;;;;;;4995826;28;20209;-78
2024/01/21 05:26:16;;;;;;;0.70;0.70;;;0.80;99.90;;;;;;5013690;28;20187;-78
2024/01/21 05:28:41;;;;;;;0.70;0.70;;;0.80;99.90;;;;;;4996400;28;20561;-78
2024/01/21 05:31:07;;;;;;;0.60;0.60;;;0.80;99.90;;;;;;5014380;28;20209;-79
2024/01/21 05:33:35;;;;;;;0.70;0.70;;;0.80;99.90;;;;;;4995865;28;20257;-78
2024/01/21 05:36:01;;;;;;;0.68;0.68;;;0.90;99.90;;;;;;5004538;28;20211;-76
2024/01/21 05:38:26;;;;;;;0.70;0.70;;;0.90;99.90;;;;;;5009170;28;20198;-76
2024/01/21 05:40:52;;;;;;;0.63;0.63;;;0.90;99.90;;;;;;5013631;28;20222;-75
2024/01/21 05:43:18;;;;;;;0.70;0.70;;;0.90;99.90;;;;;;5013597;28;20253;-76
2024/01/21 05:45:44;;;;;;;0.60;0.60;;;0.90;99.90;;;;;;5013496;28;20195;-76
2024/01/21 05:48:09;;;;;;;0.68;0.68;;;0.90;99.90;;;;;;5013209;28;20278;-77
2024/01/21 05:50:35;;;;;;;0.70;0.70;;;1.00;99.90;;;;;;5013569;28;20189;-76
2024/01/21 05:53:05;;;;;;;0.77;0.77;;;0.90;99.90;;;;;;4997861;28;20667;-76
2024/01/21 05:55:31;;;;;;;0.70;0.70;;;1.00;99.90;;;;;;5015583;28;20194;-76
2024/01/21 05:57:56;;;;;;;0.60;0.60;;;1.00;99.90;;;;;;5015695;28;20708;-76
2024/01/21 06:00:23;;;;;;;0.60;0.60;;;1.00;99.90;;;;;;5012494;28;20206;-77
2024/01/21 06:02:49;;;;;;;0.60;0.60;;;1.10;99.90;;;;;;5010504;28;20202;-76
2024/01/21 06:05:15;;;;;;;0.68;0.68;;;1.20;99.90;;;;;;5019185;28;20233;-76
2024/01/21 06:07:41;;;;;;;0.60;0.60;;;1.20;99.90;;;;;;5033316;28;20194;-76
2024/01/21 06:10:07;;;;;;;0.90;0.90;;;1.10;99.90;;;;;;5003127;28;20226;-76
2024/01/21 06:12:33;;;;;;;0.60;0.60;;;1.20;99.90;;;;;;4995523;28;20207;-76
2024/01/21 06:14:58;;;;;;;0.63;0.63;;;1.20;99.90;;;;;;5013238;28;20230;-76
2024/01/21 06:17:24;;;;;;;0.60;0.60;;;1.30;99.90;;;;;;5014878;28;20721;-76
2024/01/21 06:19:52;;;;;;;0.80;0.80;;;1.30;99.90;;;;;;5032955;28;20190;-76
2024/01/21 06:22:18;;;;;;;0.50;0.50;;;1.40;99.90;;;;;;5033046;28;20594;-76
2024/01/21 06:24:44;;;;;;;1.10;1.08;;;1.50;99.90;;;;;;5015137;28;20280;-76
2024/01/21 06:27:09;;;;;;;0.75;0.75;;;1.50;99.90;;;;;;5033005;28;20316;-76
2024/01/21 06:29:35;;;;;;;0.68;0.68;;;1.50;99.90;;;;;;5032934;28;20190;-76
2024/01/21 06:32:01;;;;;;;0.55;0.55;;;1.50;99.90;;;;;;5033092;28;20195;-76
2024/01/21 06:34:27;;;;;;;0.65;0.65;;;1.60;99.90;;;;;;5031409;28;20200;-76
2024/01/21 06:36:52;;;;;;;0.60;0.60;;;1.60;99.90;;;;;;5001303;28;20206;-77
2024/01/21 06:39:18;;;;;;;0.68;0.68;;;1.60;99.90;;;;;;5016869;28;20277;-76
2024/01/21 06:41:44;;;;;;;0.70;0.70;;;1.60;99.90;;;;;;5020196;28;20406;-76
2024/01/21 06:44:10;;;;;;;0.70;0.70;;;1.60;99.90;;;;;;5001918;28;20199;-78
2024/01/21 06:46:37;;;;;;;1.10;1.10;;;1.60;99.90;;;;;;5025093;28;20225;-79
2024/01/21 06:49:03;;;;;;;0.68;0.68;;;1.70;99.90;;;;;;5030231;28;20323;-78
2024/01/21 06:51:34;;;;;;;0.60;0.60;;;1.80;99.90;;;;;;5019318;28;20273;-79
2024/01/21 06:54:00;;;;;;;0.70;0.70;;;1.70;99.90;;;;;;5012572;28;20231;-79
2024/01/21 06:56:26;;;;;;;0.70;0.70;;;1.70;99.90;;;;;;5015682;28;20202;-80
2024/01/21 06:58:52;;;;;;;0.63;0.63;;;1.70;99.90;;;;;;5029628;28;20210;-80
2024/01/21 07:01:18;;;;;;;0.60;0.60;;;1.70;99.90;;;;;;5031687;28;20594;-80
2024/01/21 07:03:45;;;;;;;0.63;0.63;;;1.70;99.90;;;;;;5034150;28;20273;-79
2024/01/21 07:06:11;;;;;;;0.88;0.88;;;1.80;99.90;;;;;;5048473;28;20701;-79
2024/01/21 07:08:38;;;;;;;0.70;0.70;;;1.90;99.90;;;;;;5044220;28;20220;-81
2024/01/21 07:11:10;;;;;;;0.68;0.68;;;1.80;99.90;;;;;;5049588;28;20291;-79
2024/01/21 07:13:35;;;;;;;0.80;0.80;;;1.80;99.90;;;;;;5055431;28;20193;-80
2024/01/21 07:16:04;;;;;;;0.70;0.70;;;1.70;99.90;;;;;;5052201;28;20194;-80
2024/01/21 07:18:30;;;;;;;0.70;0.70;;;1.70;99.90;;;;;;5051718;28;20265;-80
2024/01/21 07:20:56;;;;;;;0.60;0.60;;;1.80;99.90;;;;;;5053490;28;20357;-79
2024/01/21 07:23:21;;;;;;;0.70;0.70;;;1.80;99.90;;;;;;5051746;28;20212;-80
2024/01/21 07:25:48;;;;;;;0.70;0.70;;;1.80;99.90;;;;;;5051971;28;20543;-80
2024/01/21 07:28:15;;;;;;;0.88;0.88;;;1.80;99.90;;;;;;5043818;28;20198;-79
2024/01/21 07:30:45;;;;;;;0.80;0.80;;;1.80;99.90;;;;;;5020555;28;20191;-80
2024/01/21 07:33:11;;;;;;;0.70;0.70;;;1.80;99.90;;;;;;5012888;28;20678;-82
2024/01/21 07:35:36;;;;;;;0.80;0.80;;;1.90;99.90;;;;;;4994131;28;20204;-80
2024/01/21 07:38:02;;;;;;;0.60;0.60;;;1.90;99.90;;;;;;5011618;28;20225;-79
2024/01/21 07:40:28;;;;;;;0.80;0.80;;;1.90;99.90;;;;;;5011599;28;20227;-80
2024/01/21 07:42:53;;;;;;;0.70;0.70;;;1.90;99.90;;;;;;5011646;28;20264;-80
2024/01/21 07:45:19;;;;;;;0.65;0.65;;;1.90;99.90;;;;;;5011834;28;20199;-79
2024/01/21 07:47:45;;;;;;;0.60;0.60;;;1.80;99.90;;;;;;5012214;28;20890;-79
2024/01/21 07:50:10;;;;;;;0.70;0.70;;;1.80;99.90;;;;;;5012164;28;20197;-81
2024/01/21 07:52:37;;;;;;;0.73;0.73;;;1.90;99.90;;;;;;5012969;28;20267;-79
2024/01/21 07:55:03;;;;;;;0.70;0.70;;;1.80;99.90;;;;;;5031350;28;20679;-79
2024/01/21 07:57:29;;;;;;;0.63;0.63;;;1.80;99.90;;;;;;5031047;28;20269;-79
2024/01/21 07:59:54;;;;;;;0.90;0.90;;;1.80;99.90;;;;;;5033526;28;20563;-79
2024/01/21 08:02:20;;;;;;;1.02;0.93;;;1.80;99.90;;;;;;5033494;28;20209;-79
2024/01/21 08:05:10;;;;;;;0.80;0.80;;;1.70;99.90;;;;;;5037532;28;20201;-80
2024/01/21 08:07:36;;;;;;;0.70;0.70;;;1.70;99.90;;;;;;5025482;28;20673;-78
2024/01/21 08:10:04;;;;;;;0.70;0.70;;;1.80;99.90;;;;;;5034648;28;20251;-78
2024/01/21 08:12:30;;;;;;;1.58;1.23;;;1.80;99.90;;;;;;5016965;28;20937;-78
2024/01/21 08:14:56;;;;;;;0.60;0.60;;;1.80;99.90;;;;;;5034717;28;20238;-78
2024/01/21 08:17:22;;;;;;;0.70;0.70;;;1.80;99.90;;;;;;5034492;28;20194;-78
2024/01/21 08:19:47;;;;;;;0.60;0.60;;;1.80;99.90;;;;;;5017009;28;20202;-79
2024/01/21 08:22:13;;;;;;;0.60;0.60;;;1.80;99.90;;;;;;5034608;28;20210;-77
2024/01/21 08:24:39;;;;;;;0.73;0.73;;;1.80;99.90;;;;;;5034648;28;20273;-78
2024/01/21 08:27:06;;;;;;;0.60;0.60;;;1.70;99.90;;;;;;5034663;28;20194;-78
2024/01/21 08:29:33;;;;;;;0.70;0.70;;;1.70;99.90;;;;;;5033150;28;20408;-78
2024/01/21 08:31:59;;;;;;;0.60;0.60;;;1.70;99.90;;;;;;5034371;28;20576;-78
2024/01/21 08:34:25;;;;;;;0.60;0.60;;;1.70;99.90;;;;;;5034773;28;20197;-78
2024/01/21 08:36:51;;;;;;;0.70;0.70;;;1.70;99.90;;;;;;5017011;28;20666;-77
2024/01/21 08:39:17;;;;;;;0.90;0.90;;;1.70;99.90;;;;;;5034604;28;20194;-78
2024/01/21 08:41:42;;;;;;;0.60;0.60;;;1.70;99.90;;;;;;5036733;28;20237;-78
2024/01/21 08:44:08;;;;;;;0.60;0.60;;;1.80;99.90;;;;;;5035535;28;20273;-77
2024/01/21 08:46:34;;;;;;;0.70;0.70;;;1.70;99.90;;;;;;5034321;28;20190;-77
2024/01/21 08:49:00;;;;;;;0.60;0.60;;;1.70;99.90;;;;;;5034222;28;20934;-77
2024/01/21 08:51:25;;;;;;;0.77;0.77;;;1.70;99.90;;;;;;5037775;28;20221;-76
2024/01/21 08:53:56;;;;;;;0.80;0.80;;;1.70;99.90;;;;;;5017074;28;20556;-76
2024/01/21 08:56:25;;;;;;;0.90;0.90;;;1.70;99.90;;;;;;5034977;28;20186;-76
2024/01/21 08:58:51;;;;;;;0.70;0.70;;;1.70;99.90;;;;;;5016572;28;20204;-76
2024/01/21 09:01:17;;;;;;;0.77;0.77;;;1.70;99.90;;;;;;5033920;28;20679;-77
2024/01/21 09:03:43;;;;;;;0.80;0.80;;;1.70;99.90;;;;;;5034338;28;20217;-77
2024/01/21 09:06:10;;;;;;;0.70;0.70;;;1.70;99.90;;;;;;5034272;28;20658;-77
2024/01/21 09:08:36;;;;;;;0.80;0.80;;;1.70;99.90;;;;;;5015833;28;20223;-77
2024/01/21 09:11:02;;;;;;;0.60;0.60;;;1.70;99.90;;;;;;5032526;28;20712;-77
2024/01/21 09:13:27;;;;;;;0.70;0.70;;;1.70;99.90;;;;;;5032324;28;20205;-78
2024/01/21 09:16:31;;;;;;;0.70;0.70;;;1.70;99.90;;;;;;5035274;28;20194;-78
2024/01/21 09:18:56;;;;;;;0.70;0.70;;;1.60;99.90;;;;;;5014405;28;20206;-79
2024/01/21 09:21:22;;;;;;;0.80;0.80;;;1.60;99.90;;;;;;5015210;28;20582;-78
2024/01/21 09:23:47;;;;;;;0.80;0.80;;;1.60;99.90;;;;;;5033190;28;20194;-79
2024/01/21 09:26:13;;;;;;;0.95;0.95;;;1.60;99.90;;;;;;5033035;28;20598;-79
2024/01/21 09:28:39;;;;;;;0.80;0.80;;;1.60;99.90;;;;;;5033246;28;20186;-77
2024/01/21 09:31:04;;;;;;;0.80;0.80;;;1.60;99.90;;;;;;5033211;28;20186;-78
2024/01/21 09:33:30;;;;;;;0.57;0.57;;;1.60;99.90;;;;;;5015390;28;20607;-81
2024/01/21 09:35:56;;;;;;;0.68;0.68;;;1.60;99.90;;;;;;5015241;28;20218;-78
2024/01/21 09:38:21;;;;;;;1.25;1.15;;;1.60;99.90;;;;;;5033053;28;20194;-82
2024/01/21 09:40:57;;;;;;;3.35;1.13;;;1.60;99.90;;;;;;5033334;28;20697;-79
2024/01/21 09:43:23;;;;;;;0.80;0.80;;;1.60;99.90;;;;;;5032921;28;20596;-79
2024/01/21 09:45:49;;;;;;;0.70;0.70;;;1.60;99.90;;;;;;5032869;28;20194;-82
2024/01/21 09:48:15;;;;;;;0.70;0.70;;;1.60;99.90;;;;;;5032973;28;20209;-78
2024/01/21 09:50:43;;;;;;;0.70;0.70;;;1.60;99.90;;;;;;5031454;28;20190;-78
2024/01/21 09:53:09;;;;;;;1.20;1.10;;;1.60;99.90;;;;;;5033192;28;20209;-79
2024/01/21 09:55:34;;;;;;;2.90;2.45;;;1.50;99.90;;;;;;5032782;28;20654;-80
2024/01/21 09:58:06;;;;;;;1.45;1.35;;;1.50;99.90;;;;;;5032996;28;20202;-79
2024/01/21 10:00:32;;;;;;;0.82;0.82;;;1.50;99.90;;;;;;5032445;28;20537;-79
2024/01/21 10:02:58;;;;;;;0.60;0.60;;;1.50;99.90;;;;;;5021801;28;20296;-79
2024/01/21 10:05:54;;;;;;;0.60;0.60;;;1.50;99.90;;;;;;5016146;28;20631;-79
2024/01/21 10:08:19;;;;;;;0.70;0.70;;;1.50;99.90;;;;;;5013853;28;20210;-80
2024/01/21 10:10:51;;;;;;;0.88;0.88;;;1.50;99.90;;;;;;5015056;28;20218;-79
2024/01/21 10:13:16;;;;;;;0.98;0.98;;;1.40;99.90;;;;;;5015175;28;20202;-79
2024/01/21 10:15:42;;;;;;;0.77;0.77;;;1.40;99.90;;;;;;5027099;28;20205;-81
2024/01/21 10:18:09;;;;;;;0.80;0.80;;;1.40;99.90;;;;;;5002520;28;20237;-80
2024/01/21 10:21:13;;;;;;;0.95;0.93;;;1.30;99.90;;;;;;4996035;28;20229;-81
2024/01/21 10:23:38;;;;;;;1.98;1.20;;;1.40;99.90;;;;;;4994518;28;20222;-78
2024/01/21 10:26:04;;;;;;;0.70;0.70;;;1.40;99.90;;;;;;5013476;28;20198;-81
2024/01/21 10:28:32;;;;;;;0.88;0.88;;;1.30;99.90;;;;;;5012923;28;20214;-81
2024/01/21 10:30:58;;;;;;;0.80;0.80;;;1.30;99.90;;;;;;5002093;28;20194;-79
2024/01/21 10:33:24;;;;;;;0.85;0.85;;;1.40;99.90;;;;;;5031993;28;20715;-79
2024/01/21 10:35:52;;;;;;;0.70;0.70;;;1.30;99.90;;;;;;4998193;28;20580;-79
2024/01/21 10:38:18;;;;;;;0.90;0.90;;;1.30;99.90;;;;;;5014153;28;20206;-78
2024/01/21 10:40:44;;;;;;;0.70;0.70;;;1.30;99.90;;;;;;5013927;28;20565;-78
2024/01/21 10:43:14;;;;;;;1.90;1.80;;;1.30;99.90;;;;;;5031560;28;20209;-78
2024/01/21 10:45:45;;;;;;;0.70;0.70;;;1.30;99.90;;;;;;5014722;28;20204;-78
2024/01/21 10:48:15;;;;;;;0.70;0.70;;;1.30;99.90;;;;;;5014140;28;20194;-80
2024/01/21 10:50:42;;;;;;;1.55;1.38;;;1.30;99.90;;;;;;5033365;28;20251;-80
2024/01/21 10:53:12;;;;;;;1.27;1.02;;;1.30;99.90;;;;;;5036187;28;20205;-79
2024/01/21 10:55:41;;;;;;;0.82;0.82;;;1.30;99.90;;;;;;5051823;28;20542;-79
2024/01/21 10:58:08;;;;;;;0.82;0.82;;;1.30;99.90;;;;;;5033698;28;20198;-79
2024/01/21 11:00:35;;;;;;;0.52;0.52;;;1.40;99.90;;;;;;5047295;28;20198;-79
2024/01/21 11:03:29;;;;;;;0.63;0.63;;;1.30;99.90;;;;;;5018580;28;20292;-80
2024/01/21 11:06:03;;;;;;;0.68;0.68;;;1.30;99.90;;;;;;5031416;28;20182;-80
2024/01/21 11:08:30;;;;;;;0.75;0.75;;;1.20;99.90;;;;;;5013022;28;20193;-79
2024/01/21 11:11:17;;;;;;;0.90;0.90;;;1.20;99.90;;;;;;5033602;28;20611;-80
2024/01/21 11:13:48;;;;;;;0.90;0.90;;;1.20;99.90;;;;;;5013602;28;20289;-79
2024/01/21 11:16:25;;;;;;;0.60;0.60;;;1.20;99.90;;;;;;5031259;28;20217;-80
2024/01/21 11:19:12;;;;;;;1.00;1.00;;;1.20;99.90;;;;;;5031430;28;20228;-79
2024/01/21 11:21:42;;;;;;;0.70;0.70;;;1.20;99.90;;;;;;5035657;28;20706;-78
2024/01/21 11:24:14;;;;;;;0.90;0.90;;;1.20;99.90;;;;;;5031313;28;20695;-78
2024/01/21 11:26:42;;;;;;;1.00;1.00;;;1.20;99.90;;;;;;5031194;28;20302;-78
2024/01/21 11:29:31;;;;;;;1.48;0.95;;;1.10;99.90;;;;;;5030887;28;20277;-78
2024/01/21 11:32:01;;;;;;;1.02;0.93;;;1.10;99.90;;;;;;5013159;28;20256;-78
2024/01/21 11:34:37;;;;;;;1.70;1.50;;;1.10;99.90;;;;;;5031890;28;20213;-78
2024/01/21 11:37:04;;;;;;;0.70;0.70;;;1.20;99.90;;;;;;5036772;28;20284;-75
2024/01/21 11:39:29;;;;;;;0.70;0.70;;;1.30;99.90;;;;;;5045987;28;20198;-75
2024/01/21 11:41:55;;;;;;;0.70;0.70;;;1.20;99.90;;;;;;5035043;28;20739;-76
2024/01/21 11:44:23;;;;;;;0.60;0.60;;;1.20;99.90;;;;;;5034701;28;20194;-75
2024/01/21 11:46:50;;;;;;;1.55;1.45;;;1.20;99.90;;;;;;5034915;28;20200;-75
2024/01/21 11:49:16;;;;;;;5.47;2.20;;;1.20;99.90;;;;;;5016930;28;20721;-75
2024/01/21 11:51:42;;;;;;;0.77;0.77;;;1.10;99.90;;;;;;5034488;28;20273;-75
2024/01/21 11:54:08;;;;;;;0.70;0.70;;;1.10;99.90;;;;;;5035046;28;20252;-75
2024/01/21 11:56:37;;;;;;;0.60;0.60;;;1.10;99.90;;;;;;5016746;28;20195;-76
2024/01/21 11:59:06;;;;;;;0.82;0.82;;;1.10;99.90;;;;;;5034676;28;20196;-75
2024/01/21 12:01:33;;;;;;;0.70;0.70;;;1.10;99.90;;;;;;5034310;28;20198;-76
2024/01/21 12:04:03;;;;;;;0.70;0.70;;;1.10;99.90;;;;;;5035214;28;20255;-76
2024/01/21 12:06:40;;;;;;;0.90;0.90;;;1.10;99.90;;;;;;5034313;28;20206;-76
2024/01/21 12:09:07;;;;;;;0.82;0.82;;;1.10;99.90;;;;;;5034361;28;20194;-76
2024/01/21 12:11:35;;;;;;;0.60;0.60;;;1.10;99.90;;;;;;5034201;28;20248;-76
2024/01/21 12:14:01;;;;;;;0.63;0.63;;;1.10;99.90;;;;;;5034447;28;20201;-76
2024/01/21 12:16:27;;;;;;;0.90;0.90;;;1.20;99.90;;;;;;5034201;28;20196;-76
2024/01/21 12:18:54;;;;;;;1.23;1.10;;;1.10;99.90;;;;;;5034300;28;20199;-76
2024/01/21 12:21:22;;;;;;;0.70;0.70;;;1.10;99.90;;;;;;5016157;28;20276;-76
2024/01/21 12:23:50;;;;;;;0.70;0.70;;;1.10;99.90;;;;;;5034280;28;20191;-76
2024/01/21 12:26:17;;;;;;;0.73;0.73;;;1.10;99.90;;;;;;5033066;28;20220;-76
2024/01/21 12:28:57;;;;;;;0.70;0.70;;;1.10;99.90;;;;;;5034730;28;20187;-76
2024/01/21 12:31:31;;;;;;;0.70;0.70;;;1.10;99.90;;;;;;5034406;28;20273;-76
2024/01/21 12:34:08;;;;;;;0.70;0.70;;;1.20;99.90;;;;;;5022897;28;20713;-76
2024/01/21 12:36:35;;;;;;;0.77;0.77;;;1.20;99.90;;;;;;5044217;28;20565;-76
2024/01/21 12:39:05;;;;;;;1.27;1.17;;;1.20;99.90;;;;;;5046331;28;20193;-76
2024/01/21 12:41:31;;;;;;;0.70;0.70;;;1.20;99.90;;;;;;5048235;28;20618;-76
2024/01/21 12:43:57;;;;;;;0.80;0.80;;;1.30;99.90;;;;;;5051113;28;20654;-76
2024/01/21 12:46:23;;;;;;;0.98;0.90;;;1.40;99.90;;;;;;5027777;28;20205;-76
2024/01/21 12:48:49;;;;;;;1.20;1.20;;;1.40;99.90;;;;;;5035545;28;20190;-76
2024/01/21 12:51:19;;;;;;;1.67;1.55;;;1.60;99.90;;;;;;5017244;28;20292;-77
2024/01/21 12:53:54;;;;;;;0.85;0.85;;;1.70;99.90;;;;;;5034801;28;20240;-76